sensor_id;sensor_type;location;lat;lon;timestamp;P1;durP1;ratioP1;P2;durP2;ratioP2
27365;SDS011;14837;57.148;-2.144;2023-07-28T00:01:11;3.70;;;3.03;;
27365;SDS011;14837;57.148;-2.144;2023-07-28T00:03:38;3.53;;;3.22;;
27365;SDS011;14837;57.148;-2.144;2023-07-28T00:06:05;4.90;;;4.20;;
27365;SDS011;14837;57.148;-2.144;2023-07-28T00:08:31;4.05;;;3.65;;
27365;SDS011;14837;57.148;-2.144;2023-07-28T00:10:58;4.07;;;3.35;;
27365;SDS011;14837;57.148;-2.144;2023-07-28T00:13:24;4.55;;;3.35;;
27365;SDS011;14837;57.148;-2.144;2023-07-28T00:15:51;5.00;;;3.35;;
27365;SDS011;14837;57.148;-2.144;2023-07-28T00:18:17;4.45;;;4.05;;
27365;SDS011;14837;57.148;-2.144;2023-07-28T00:20:44;3.42;;;3.13;;
27365;SDS011;14837;57.148;-2.144;2023-07-28T00:23:11;4.40;;;3.05;;
27365;SDS011;14837;57.148;-2.144;2023-07-28T00:25:37;3.47;;;3.17;;
27365;SDS011;14837;57.148;-2.144;2023-07-28T00:28:04;4.55;;;3.75;;
27365;SDS011;14837;57.148;-2.144;2023-07-28T00:30:31;3.25;;;2.95;;
27365;SDS011;14837;57.148;-2.144;2023-07-28T00:32:57;3.13;;;2.90;;
27365;SDS011;14837;57.148;-2.144;2023-07-28T00:35:24;3.13;;;2.38;;
27365;SDS011;14837;57.148;-2.144;2023-07-28T00:37:50;3.00;;;2.70;;
27365;SDS011;14837;57.148;-2.144;2023-07-28T00:40:17;3.40;;;3.13;;
27365;SDS011;14837;57.148;-2.144;2023-07-28T00:42:43;3.00;;;2.70;;
27365;SDS011;14837;57.148;-2.144;2023-07-28T00:45:10;3.40;;;3.10;;
27365;SDS011;14837;57.148;-2.144;2023-07-28T00:47:37;3.25;;;2.97;;
27365;SDS011;14837;57.148;-2.144;2023-07-28T00:50:04;3.30;;;3.00;;
27365;SDS011;14837;57.148;-2.144;2023-07-28T00:52:31;3.97;;;3.58;;
27365;SDS011;14837;57.148;-2.144;2023-07-28T00:54:57;3.58;;;3.28;;
27365;SDS011;14837;57.148;-2.144;2023-07-28T00:57:24;3.63;;;3.15;;
27365;SDS011;14837;57.148;-2.144;2023-07-28T00:59:50;3.38;;;3.08;;
27365;SDS011;14837;57.148;-2.144;2023-07-28T01:02:17;4.38;;;3.78;;
27365;SDS011;14837;57.148;-2.144;2023-07-28T01:04:44;3.83;;;3.33;;
27365;SDS011;14837;57.148;-2.144;2023-07-28T01:07:15;3.47;;;3.05;;
27365;SDS011;14837;57.148;-2.144;2023-07-28T01:09:47;3.67;;;3.38;;
27365;SDS011;14837;57.148;-2.144;2023-07-28T01:12:16;4.47;;;3.70;;
27365;SDS011;14837;57.148;-2.144;2023-07-28T01:14:43;3.88;;;3.47;;
27365;SDS011;14837;57.148;-2.144;2023-07-28T01:17:10;6.05;;;3.05;;
27365;SDS011;14837;57.148;-2.144;2023-07-28T01:19:37;8.40;;;3.95;;
27365;SDS011;14837;57.148;-2.144;2023-07-28T01:22:46;4.50;;;3.35;;
27365;SDS011;14837;57.148;-2.144;2023-07-28T01:25:06;3.97;;;3.10;;
27365;SDS011;14837;57.148;-2.144;2023-07-28T01:30:04;3.30;;;3.00;;
27365;SDS011;14837;57.148;-2.144;2023-07-28T01:32:31;4.20;;;3.20;;
27365;SDS011;14837;57.148;-2.144;2023-07-28T01:34:57;5.75;;;3.60;;
27365;SDS011;14837;57.148;-2.144;2023-07-28T01:37:24;3.63;;;3.15;;
27365;SDS011;14837;57.148;-2.144;2023-07-28T01:39:51;3.92;;;3.58;;
27365;SDS011;14837;57.148;-2.144;2023-07-28T01:42:17;3.95;;;3.30;;
27365;SDS011;14837;57.148;-2.144;2023-07-28T01:44:44;3.35;;;3.05;;
27365;SDS011;14837;57.148;-2.144;2023-07-28T01:47:10;5.38;;;4.45;;
27365;SDS011;14837;57.148;-2.144;2023-07-28T01:49:37;3.58;;;3.28;;
27365;SDS011;14837;57.148;-2.144;2023-07-28T01:52:03;9.90;;;4.43;;
27365;SDS011;14837;57.148;-2.144;2023-07-28T01:54:30;5.75;;;4.13;;
27365;SDS011;14837;57.148;-2.144;2023-07-28T01:56:57;5.43;;;4.25;;
27365;SDS011;14837;57.148;-2.144;2023-07-28T01:59:23;5.43;;;4.03;;
27365;SDS011;14837;57.148;-2.144;2023-07-28T02:01:50;5.47;;;4.15;;
27365;SDS011;14837;57.148;-2.144;2023-07-28T02:04:16;8.23;;;4.50;;
27365;SDS011;14837;57.148;-2.144;2023-07-28T02:06:43;17.00;;;5.90;;
27365;SDS011;14837;57.148;-2.144;2023-07-28T02:09:10;8.50;;;4.25;;
27365;SDS011;14837;57.148;-2.144;2023-07-28T02:11:36;5.65;;;4.28;;
27365;SDS011;14837;57.148;-2.144;2023-07-28T02:14:03;3.70;;;3.40;;
27365;SDS011;14837;57.148;-2.144;2023-07-28T02:16:29;4.30;;;3.90;;
27365;SDS011;14837;57.148;-2.144;2023-07-28T02:18:59;4.68;;;4.03;;
27365;SDS011;14837;57.148;-2.144;2023-07-28T02:21:25;4.03;;;3.60;;
27365;SDS011;14837;57.148;-2.144;2023-07-28T02:23:53;3.70;;;3.35;;
27365;SDS011;14837;57.148;-2.144;2023-07-28T02:26:19;3.42;;;3.13;;
27365;SDS011;14837;57.148;-2.144;2023-07-28T02:28:46;5.13;;;4.40;;
27365;SDS011;14837;57.148;-2.144;2023-07-28T02:31:12;4.80;;;4.38;;
27365;SDS011;14837;57.148;-2.144;2023-07-28T02:33:39;4.55;;;4.13;;
27365;SDS011;14837;57.148;-2.144;2023-07-28T02:36:06;4.15;;;3.78;;
27365;SDS011;14837;57.148;-2.144;2023-07-28T02:38:32;4.22;;;3.85;;
27365;SDS011;14837;57.148;-2.144;2023-07-28T02:40:59;4.43;;;4.03;;
27365;SDS011;14837;57.148;-2.144;2023-07-28T02:43:25;3.95;;;3.55;;
27365;SDS011;14837;57.148;-2.144;2023-07-28T02:45:56;4.22;;;3.83;;
27365;SDS011;14837;57.148;-2.144;2023-07-28T02:48:23;3.25;;;2.95;;
27365;SDS011;14837;57.148;-2.144;2023-07-28T02:50:50;3.50;;;3.20;;
27365;SDS011;14837;57.148;-2.144;2023-07-28T02:53:17;3.75;;;3.45;;
27365;SDS011;14837;57.148;-2.144;2023-07-28T02:55:43;3.38;;;3.05;;
27365;SDS011;14837;57.148;-2.144;2023-07-28T02:58:10;3.40;;;3.10;;
27365;SDS011;14837;57.148;-2.144;2023-07-28T03:00:38;3.47;;;3.13;;
27365;SDS011;14837;57.148;-2.144;2023-07-28T03:03:05;4.57;;;3.63;;
27365;SDS011;14837;57.148;-2.144;2023-07-28T03:05:32;4.72;;;4.03;;
27365;SDS011;14837;57.148;-2.144;2023-07-28T03:07:58;4.38;;;3.97;;
27365;SDS011;14837;57.148;-2.144;2023-07-28T03:10:25;4.18;;;3.80;;
27365;SDS011;14837;57.148;-2.144;2023-07-28T03:12:52;4.10;;;3.80;;
27365;SDS011;14837;57.148;-2.144;2023-07-28T03:15:19;4.88;;;3.95;;
27365;SDS011;14837;57.148;-2.144;2023-07-28T03:17:46;3.85;;;3.47;;
27365;SDS011;14837;57.148;-2.144;2023-07-28T03:20:12;4.45;;;4.05;;
27365;SDS011;14837;57.148;-2.144;2023-07-28T03:22:39;4.30;;;3.60;;
27365;SDS011;14837;57.148;-2.144;2023-07-28T03:25:06;4.38;;;3.97;;
27365;SDS011;14837;57.148;-2.144;2023-07-28T03:27:32;4.05;;;3.75;;
27365;SDS011;14837;57.148;-2.144;2023-07-28T03:29:59;4.65;;;4.25;;
27365;SDS011;14837;57.148;-2.144;2023-07-28T03:32:26;4.40;;;4.00;;
27365;SDS011;14837;57.148;-2.144;2023-07-28T03:34:52;5.30;;;4.10;;
27365;SDS011;14837;57.148;-2.144;2023-07-28T03:37:20;4.50;;;4.10;;
27365;SDS011;14837;57.148;-2.144;2023-07-28T03:39:47;4.45;;;4.05;;
27365;SDS011;14837;57.148;-2.144;2023-07-28T03:42:13;3.80;;;3.50;;
27365;SDS011;14837;57.148;-2.144;2023-07-28T03:44:41;4.60;;;4.03;;
27365;SDS011;14837;57.148;-2.144;2023-07-28T03:47:08;4.18;;;3.78;;
27365;SDS011;14837;57.148;-2.144;2023-07-28T03:49:34;4.15;;;3.75;;
27365;SDS011;14837;57.148;-2.144;2023-07-28T03:52:01;3.80;;;3.42;;
27365;SDS011;14837;57.148;-2.144;2023-07-28T03:54:28;3.28;;;2.97;;
27365;SDS011;14837;57.148;-2.144;2023-07-28T03:56:54;4.78;;;4.35;;
27365;SDS011;14837;57.148;-2.144;2023-07-28T03:59:21;4.18;;;3.78;;
27365;SDS011;14837;57.148;-2.144;2023-07-28T04:01:47;3.90;;;3.60;;
27365;SDS011;14837;57.148;-2.144;2023-07-28T04:04:14;3.90;;;3.50;;
27365;SDS011;14837;57.148;-2.144;2023-07-28T04:06:45;3.55;;;3.25;;
27365;SDS011;14837;57.148;-2.144;2023-07-28T04:09:13;5.28;;;3.88;;
27365;SDS011;14837;57.148;-2.144;2023-07-28T04:11:40;3.97;;;3.67;;
27365;SDS011;14837;57.148;-2.144;2023-07-28T04:14:06;4.70;;;4.30;;
27365;SDS011;14837;57.148;-2.144;2023-07-28T04:16:33;5.88;;;3.58;;
27365;SDS011;14837;57.148;-2.144;2023-07-28T04:19:00;4.15;;;3.85;;
27365;SDS011;14837;57.148;-2.144;2023-07-28T04:21:26;4.70;;;4.10;;
27365;SDS011;14837;57.148;-2.144;2023-07-28T04:23:53;5.00;;;4.60;;
27365;SDS011;14837;57.148;-2.144;2023-07-28T04:26:20;4.50;;;4.10;;
27365;SDS011;14837;57.148;-2.144;2023-07-28T04:28:46;3.97;;;3.58;;
27365;SDS011;14837;57.148;-2.144;2023-07-28T04:31:13;4.40;;;3.97;;
27365;SDS011;14837;57.148;-2.144;2023-07-28T04:33:43;4.57;;;4.03;;
27365;SDS011;14837;57.148;-2.144;2023-07-28T04:36:09;3.53;;;3.22;;
27365;SDS011;14837;57.148;-2.144;2023-07-28T04:38:36;3.92;;;3.60;;
27365;SDS011;14837;57.148;-2.144;2023-07-28T04:41:02;3.92;;;3.63;;
27365;SDS011;14837;57.148;-2.144;2023-07-28T04:43:29;4.00;;;3.65;;
27365;SDS011;14837;57.148;-2.144;2023-07-28T04:45:55;4.50;;;4.00;;
27365;SDS011;14837;57.148;-2.144;2023-07-28T04:48:22;4.55;;;4.07;;
27365;SDS011;14837;57.148;-2.144;2023-07-28T04:50:49;4.85;;;4.00;;
27365;SDS011;14837;57.148;-2.144;2023-07-28T04:53:15;4.43;;;4.03;;
27365;SDS011;14837;57.148;-2.144;2023-07-28T04:55:42;3.72;;;3.42;;
27365;SDS011;14837;57.148;-2.144;2023-07-28T04:58:08;4.82;;;3.42;;
27365;SDS011;14837;57.148;-2.144;2023-07-28T05:00:35;4.13;;;3.72;;
27365;SDS011;14837;57.148;-2.144;2023-07-28T05:03:01;3.78;;;3.47;;
27365;SDS011;14837;57.148;-2.144;2023-07-28T05:05:31;3.88;;;3.45;;
27365;SDS011;14837;57.148;-2.144;2023-07-28T05:07:57;4.07;;;3.40;;
27365;SDS011;14837;57.148;-2.144;2023-07-28T05:10:24;3.80;;;3.47;;
27365;SDS011;14837;57.148;-2.144;2023-07-28T05:12:51;3.38;;;3.10;;
27365;SDS011;14837;57.148;-2.144;2023-07-28T05:15:17;3.85;;;3.50;;
27365;SDS011;14837;57.148;-2.144;2023-07-28T05:17:44;3.78;;;3.45;;
27365;SDS011;14837;57.148;-2.144;2023-07-28T05:20:10;4.32;;;3.72;;
27365;SDS011;14837;57.148;-2.144;2023-07-28T05:22:37;3.67;;;3.38;;
27365;SDS011;14837;57.148;-2.144;2023-07-28T05:25:04;3.83;;;3.40;;
27365;SDS011;14837;57.148;-2.144;2023-07-28T05:27:31;4.50;;;4.10;;
27365;SDS011;14837;57.148;-2.144;2023-07-28T05:29:57;3.47;;;3.15;;
27365;SDS011;14837;57.148;-2.144;2023-07-28T05:32:24;5.00;;;2.97;;
27365;SDS011;14837;57.148;-2.144;2023-07-28T05:34:51;4.45;;;3.30;;
27365;SDS011;14837;57.148;-2.144;2023-07-28T05:37:17;3.53;;;3.10;;
27365;SDS011;14837;57.148;-2.144;2023-07-28T05:39:44;4.18;;;3.33;;
27365;SDS011;14837;57.148;-2.144;2023-07-28T05:42:11;3.78;;;3.47;;
27365;SDS011;14837;57.148;-2.144;2023-07-28T05:44:37;6.22;;;3.78;;
27365;SDS011;14837;57.148;-2.144;2023-07-28T05:47:04;4.22;;;3.78;;
27365;SDS011;14837;57.148;-2.144;2023-07-28T05:49:31;4.30;;;3.95;;
27365;SDS011;14837;57.148;-2.144;2023-07-28T05:51:58;4.75;;;4.35;;
27365;SDS011;14837;57.148;-2.144;2023-07-28T05:54:24;4.80;;;4.35;;
27365;SDS011;14837;57.148;-2.144;2023-07-28T05:56:51;5.75;;;4.25;;
27365;SDS011;14837;57.148;-2.144;2023-07-28T05:59:17;6.22;;;4.05;;
27365;SDS011;14837;57.148;-2.144;2023-07-28T06:01:44;5.28;;;3.90;;
27365;SDS011;14837;57.148;-2.144;2023-07-28T06:04:11;4.20;;;3.80;;
27365;SDS011;14837;57.148;-2.144;2023-07-28T06:06:37;5.35;;;3.88;;
27365;SDS011;14837;57.148;-2.144;2023-07-28T06:09:04;5.13;;;3.97;;
27365;SDS011;14837;57.148;-2.144;2023-07-28T06:11:30;3.75;;;3.42;;
27365;SDS011;14837;57.148;-2.144;2023-07-28T06:13:57;4.78;;;4.38;;
27365;SDS011;14837;57.148;-2.144;2023-07-28T06:16:24;4.68;;;4.28;;
27365;SDS011;14837;57.148;-2.144;2023-07-28T06:18:51;4.40;;;4.00;;
27365;SDS011;14837;57.148;-2.144;2023-07-28T06:21:17;4.90;;;4.47;;
27365;SDS011;14837;57.148;-2.144;2023-07-28T06:23:44;5.28;;;4.78;;
27365;SDS011;14837;57.148;-2.144;2023-07-28T06:26:10;5.50;;;4.93;;
27365;SDS011;14837;57.148;-2.144;2023-07-28T06:28:37;5.22;;;4.72;;
27365;SDS011;14837;57.148;-2.144;2023-07-28T06:31:04;5.45;;;4.95;;
27365;SDS011;14837;57.148;-2.144;2023-07-28T06:33:32;7.15;;;5.20;;
27365;SDS011;14837;57.148;-2.144;2023-07-28T06:35:58;6.35;;;5.25;;
27365;SDS011;14837;57.148;-2.144;2023-07-28T06:38:25;6.15;;;5.38;;
27365;SDS011;14837;57.148;-2.144;2023-07-28T06:40:52;7.28;;;5.43;;
27365;SDS011;14837;57.148;-2.144;2023-07-28T06:43:18;5.05;;;4.60;;
27365;SDS011;14837;57.148;-2.144;2023-07-28T06:45:46;5.85;;;4.75;;
27365;SDS011;14837;57.148;-2.144;2023-07-28T06:48:12;4.15;;;3.75;;
27365;SDS011;14837;57.148;-2.144;2023-07-28T06:50:39;4.30;;;3.90;;
27365;SDS011;14837;57.148;-2.144;2023-07-28T06:53:05;4.47;;;3.97;;
27365;SDS011;14837;57.148;-2.144;2023-07-28T06:55:32;4.90;;;4.15;;
27365;SDS011;14837;57.148;-2.144;2023-07-28T06:57:59;4.35;;;3.95;;
27365;SDS011;14837;57.148;-2.144;2023-07-28T07:00:26;4.80;;;4.40;;
27365;SDS011;14837;57.148;-2.144;2023-07-28T07:02:53;3.72;;;3.42;;
27365;SDS011;14837;57.148;-2.144;2023-07-28T07:05:19;4.20;;;3.55;;
27365;SDS011;14837;57.148;-2.144;2023-07-28T07:07:46;3.95;;;3.58;;
27365;SDS011;14837;57.148;-2.144;2023-07-28T07:10:13;3.95;;;3.65;;
27365;SDS011;14837;57.148;-2.144;2023-07-28T07:12:39;5.70;;;4.25;;
27365;SDS011;14837;57.148;-2.144;2023-07-28T07:15:06;4.00;;;3.60;;
27365;SDS011;14837;57.148;-2.144;2023-07-28T07:17:33;4.47;;;4.07;;
27365;SDS011;14837;57.148;-2.144;2023-07-28T07:20:00;4.32;;;4.03;;
27365;SDS011;14837;57.148;-2.144;2023-07-28T07:22:26;3.97;;;3.58;;
27365;SDS011;14837;57.148;-2.144;2023-07-28T07:24:55;3.28;;;2.97;;
27365;SDS011;14837;57.148;-2.144;2023-07-28T07:27:23;3.50;;;3.20;;
27365;SDS011;14837;57.148;-2.144;2023-07-28T07:29:50;3.47;;;3.17;;
27365;SDS011;14837;57.148;-2.144;2023-07-28T07:32:17;4.18;;;3.63;;
27365;SDS011;14837;57.148;-2.144;2023-07-28T07:34:43;3.20;;;2.90;;
27365;SDS011;14837;57.148;-2.144;2023-07-28T07:37:10;2.78;;;2.58;;
27365;SDS011;14837;57.148;-2.144;2023-07-28T07:39:36;3.38;;;3.08;;
27365;SDS011;14837;57.148;-2.144;2023-07-28T07:42:03;3.63;;;2.80;;
27365;SDS011;14837;57.148;-2.144;2023-07-28T07:44:31;2.65;;;2.45;;
27365;SDS011;14837;57.148;-2.144;2023-07-28T07:47:00;3.42;;;3.03;;
27365;SDS011;14837;57.148;-2.144;2023-07-28T07:49:26;4.05;;;3.25;;
27365;SDS011;14837;57.148;-2.144;2023-07-28T07:51:53;2.58;;;2.38;;
27365;SDS011;14837;57.148;-2.144;2023-07-28T07:54:20;2.50;;;2.30;;
27365;SDS011;14837;57.148;-2.144;2023-07-28T07:56:47;2.80;;;2.60;;
27365;SDS011;14837;57.148;-2.144;2023-07-28T07:59:13;2.88;;;2.67;;
27365;SDS011;14837;57.148;-2.144;2023-07-28T08:01:40;3.05;;;2.75;;
27365;SDS011;14837;57.148;-2.144;2023-07-28T08:04:07;1.92;;;1.73;;
27365;SDS011;14837;57.148;-2.144;2023-07-28T08:06:34;1.95;;;1.83;;
27365;SDS011;14837;57.148;-2.144;2023-07-28T08:09:00;1.90;;;1.80;;
27365;SDS011;14837;57.148;-2.144;2023-07-28T08:11:27;2.67;;;1.80;;
27365;SDS011;14837;57.148;-2.144;2023-07-28T08:13:54;1.70;;;1.60;;
27365;SDS011;14837;57.148;-2.144;2023-07-28T08:16:21;1.85;;;1.75;;
27365;SDS011;14837;57.148;-2.144;2023-07-28T08:18:48;1.17;;;1.08;;
27365;SDS011;14837;57.148;-2.144;2023-07-28T08:21:14;1.48;;;1.38;;
27365;SDS011;14837;57.148;-2.144;2023-07-28T08:23:41;1.25;;;1.15;;
27365;SDS011;14837;57.148;-2.144;2023-07-28T08:26:07;1.50;;;1.40;;
27365;SDS011;14837;57.148;-2.144;2023-07-28T08:28:34;1.98;;;1.55;;
27365;SDS011;14837;57.148;-2.144;2023-07-28T08:31:01;1.83;;;1.50;;
27365;SDS011;14837;57.148;-2.144;2023-07-28T08:33:27;1.80;;;1.45;;
27365;SDS011;14837;57.148;-2.144;2023-07-28T08:35:54;1.50;;;1.40;;
27365;SDS011;14837;57.148;-2.144;2023-07-28T08:38:20;1.55;;;1.23;;
27365;SDS011;14837;57.148;-2.144;2023-07-28T08:40:47;1.80;;;1.70;;
27365;SDS011;14837;57.148;-2.144;2023-07-28T08:43:14;1.30;;;1.20;;
27365;SDS011;14837;57.148;-2.144;2023-07-28T08:45:40;1.48;;;1.38;;
27365;SDS011;14837;57.148;-2.144;2023-07-28T08:48:07;1.42;;;1.10;;
27365;SDS011;14837;57.148;-2.144;2023-07-28T08:50:35;2.13;;;0.90;;
27365;SDS011;14837;57.148;-2.144;2023-07-28T08:53:02;1.88;;;1.67;;
27365;SDS011;14837;57.148;-2.144;2023-07-28T08:55:29;2.28;;;2.08;;
27365;SDS011;14837;57.148;-2.144;2023-07-28T08:57:56;2.40;;;2.20;;
27365;SDS011;14837;57.148;-2.144;2023-07-28T09:00:22;1.33;;;1.23;;
27365;SDS011;14837;57.148;-2.144;2023-07-28T09:02:51;1.65;;;1.52;;
27365;SDS011;14837;57.148;-2.144;2023-07-28T09:05:18;1.60;;;1.50;;
27365;SDS011;14837;57.148;-2.144;2023-07-28T09:07:46;1.73;;;1.63;;
27365;SDS011;14837;57.148;-2.144;2023-07-28T09:10:14;2.08;;;1.73;;
27365;SDS011;14837;57.148;-2.144;2023-07-28T09:12:49;2.10;;;1.80;;
27365;SDS011;14837;57.148;-2.144;2023-07-28T09:15:16;2.00;;;1.63;;
27365;SDS011;14837;57.148;-2.144;2023-07-28T09:17:43;1.85;;;1.70;;
27365;SDS011;14837;57.148;-2.144;2023-07-28T09:20:16;1.90;;;1.80;;
27365;SDS011;14837;57.148;-2.144;2023-07-28T09:25:11;1.83;;;1.50;;
27365;SDS011;14837;57.148;-2.144;2023-07-28T09:27:39;2.00;;;1.67;;
27365;SDS011;14837;57.148;-2.144;2023-07-28T09:30:06;2.47;;;1.58;;
27365;SDS011;14837;57.148;-2.144;2023-07-28T09:32:33;2.10;;;1.90;;
27365;SDS011;14837;57.148;-2.144;2023-07-28T09:35:05;1.52;;;1.40;;
27365;SDS011;14837;57.148;-2.144;2023-07-28T09:37:33;1.10;;;0.98;;
27365;SDS011;14837;57.148;-2.144;2023-07-28T09:40:00;1.23;;;1.13;;
27365;SDS011;14837;57.148;-2.144;2023-07-28T09:42:31;1.55;;;1.13;;
27365;SDS011;14837;57.148;-2.144;2023-07-28T09:44:58;1.77;;;1.17;;
27365;SDS011;14837;57.148;-2.144;2023-07-28T09:47:24;1.70;;;1.00;;
27365;SDS011;14837;57.148;-2.144;2023-07-28T09:49:51;0.98;;;0.80;;
27365;SDS011;14837;57.148;-2.144;2023-07-28T09:52:19;1.17;;;1.08;;
27365;SDS011;14837;57.148;-2.144;2023-07-28T09:54:45;1.20;;;1.08;;
27365;SDS011;14837;57.148;-2.144;2023-07-28T09:57:19;1.90;;;0.90;;
27365;SDS011;14837;57.148;-2.144;2023-07-28T09:59:46;1.23;;;0.95;;
27365;SDS011;14837;57.148;-2.144;2023-07-28T10:02:13;2.35;;;0.90;;
27365;SDS011;14837;57.148;-2.144;2023-07-28T10:04:41;1.25;;;0.50;;
27365;SDS011;14837;57.148;-2.144;2023-07-28T10:07:07;0.88;;;0.50;;
27365;SDS011;14837;57.148;-2.144;2023-07-28T10:09:35;0.52;;;0.50;;
27365;SDS011;14837;57.148;-2.144;2023-07-28T10:12:03;0.60;;;0.60;;
27365;SDS011;14837;57.148;-2.144;2023-07-28T10:14:36;0.70;;;0.50;;
27365;SDS011;14837;57.148;-2.144;2023-07-28T10:17:06;0.90;;;0.35;;
27365;SDS011;14837;57.148;-2.144;2023-07-28T10:19:36;0.70;;;0.40;;
27365;SDS011;14837;57.148;-2.144;2023-07-28T10:22:07;0.43;;;0.40;;
27365;SDS011;14837;57.148;-2.144;2023-07-28T10:24:52;1.05;;;0.55;;
27365;SDS011;14837;57.148;-2.144;2023-07-28T10:27:29;1.80;;;0.50;;
27365;SDS011;14837;57.148;-2.144;2023-07-28T10:29:56;0.45;;;0.40;;
27365;SDS011;14837;57.148;-2.144;2023-07-28T10:32:27;1.00;;;0.52;;
27365;SDS011;14837;57.148;-2.144;2023-07-28T10:34:58;0.70;;;0.52;;
27365;SDS011;14837;57.148;-2.144;2023-07-28T10:37:25;1.05;;;0.60;;
27365;SDS011;14837;57.148;-2.144;2023-07-28T10:42:37;0.95;;;0.60;;
27365;SDS011;14837;57.148;-2.144;2023-07-28T10:45:04;2.00;;;0.77;;
27365;SDS011;14837;57.148;-2.144;2023-07-28T10:47:31;0.82;;;0.60;;
27365;SDS011;14837;57.148;-2.144;2023-07-28T10:50:01;0.73;;;0.52;;
27365;SDS011;14837;57.148;-2.144;2023-07-28T10:52:28;0.60;;;0.55;;
27365;SDS011;14837;57.148;-2.144;2023-07-28T10:54:55;0.80;;;0.40;;
27365;SDS011;14837;57.148;-2.144;2023-07-28T10:57:21;1.38;;;0.70;;
27365;SDS011;14837;57.148;-2.144;2023-07-28T10:59:48;0.90;;;0.80;;
27365;SDS011;14837;57.148;-2.144;2023-07-28T11:02:17;1.58;;;0.80;;
27365;SDS011;14837;57.148;-2.144;2023-07-28T11:04:46;0.63;;;0.63;;
27365;SDS011;14837;57.148;-2.144;2023-07-28T11:07:13;1.10;;;0.60;;
27365;SDS011;14837;57.148;-2.144;2023-07-28T11:09:40;1.13;;;0.50;;
27365;SDS011;14837;57.148;-2.144;2023-07-28T11:12:09;0.98;;;0.47;;
27365;SDS011;14837;57.148;-2.144;2023-07-28T11:14:36;0.80;;;0.60;;
27365;SDS011;14837;57.148;-2.144;2023-07-28T11:17:03;1.05;;;0.57;;
27365;SDS011;14837;57.148;-2.144;2023-07-28T11:19:33;0.75;;;0.60;;
27365;SDS011;14837;57.148;-2.144;2023-07-28T11:21:59;1.25;;;0.60;;
27365;SDS011;14837;57.148;-2.144;2023-07-28T11:24:26;0.50;;;0.50;;
27365;SDS011;14837;57.148;-2.144;2023-07-28T11:26:52;0.45;;;0.30;;
27365;SDS011;14837;57.148;-2.144;2023-07-28T11:29:19;0.50;;;0.50;;
27365;SDS011;14837;57.148;-2.144;2023-07-28T11:31:47;0.25;;;0.25;;
27365;SDS011;14837;57.148;-2.144;2023-07-28T11:34:15;0.57;;;0.40;;
27365;SDS011;14837;57.148;-2.144;2023-07-28T11:36:42;0.28;;;0.28;;
27365;SDS011;14837;57.148;-2.144;2023-07-28T11:39:08;0.43;;;0.40;;
27365;SDS011;14837;57.148;-2.144;2023-07-28T11:41:37;0.50;;;0.43;;
27365;SDS011;14837;57.148;-2.144;2023-07-28T11:44:04;0.40;;;0.38;;
27365;SDS011;14837;57.148;-2.144;2023-07-28T11:46:32;0.50;;;0.50;;
27365;SDS011;14837;57.148;-2.144;2023-07-28T11:49:12;0.20;;;0.20;;
27365;SDS011;14837;57.148;-2.144;2023-07-28T11:51:47;0.32;;;0.32;;
27365;SDS011;14837;57.148;-2.144;2023-07-28T11:54:15;0.55;;;0.40;;
27365;SDS011;14837;57.148;-2.144;2023-07-28T11:56:42;0.98;;;0.60;;
27365;SDS011;14837;57.148;-2.144;2023-07-28T11:59:10;0.75;;;0.70;;
27365;SDS011;14837;57.148;-2.144;2023-07-28T12:01:52;0.60;;;0.60;;
27365;SDS011;14837;57.148;-2.144;2023-07-28T12:04:25;0.40;;;0.40;;
27365;SDS011;14837;57.148;-2.144;2023-07-28T12:12:30;0.40;;;0.40;;
27365;SDS011;14837;57.148;-2.144;2023-07-28T12:15:27;0.40;;;0.40;;
27365;SDS011;14837;57.148;-2.144;2023-07-28T12:20:33;0.52;;;0.50;;
27365;SDS011;14837;57.148;-2.144;2023-07-28T12:23:05;0.85;;;0.65;;
27365;SDS011;14837;57.148;-2.144;2023-07-28T12:25:36;0.85;;;0.70;;
27365;SDS011;14837;57.148;-2.144;2023-07-28T12:28:02;0.50;;;0.50;;
27365;SDS011;14837;57.148;-2.144;2023-07-28T12:30:29;1.60;;;0.50;;
27365;SDS011;14837;57.148;-2.144;2023-07-28T12:32:56;1.05;;;0.70;;
27365;SDS011;14837;57.148;-2.144;2023-07-28T12:35:26;0.40;;;0.40;;
27365;SDS011;14837;57.148;-2.144;2023-07-28T12:38:00;1.83;;;1.17;;
27365;SDS011;14837;57.148;-2.144;2023-07-28T12:40:27;0.65;;;0.60;;
27365;SDS011;14837;57.148;-2.144;2023-07-28T12:42:57;1.27;;;0.77;;
27365;SDS011;14837;57.148;-2.144;2023-07-28T12:45:27;1.50;;;0.73;;
27365;SDS011;14837;57.148;-2.144;2023-07-28T12:48:14;0.90;;;0.80;;
27365;SDS011;14837;57.148;-2.144;2023-07-28T12:50:43;0.80;;;0.60;;
27365;SDS011;14837;57.148;-2.144;2023-07-28T12:53:09;0.60;;;0.52;;
27365;SDS011;14837;57.148;-2.144;2023-07-28T12:55:43;2.67;;;1.15;;
27365;SDS011;14837;57.148;-2.144;2023-07-28T12:58:12;2.25;;;0.90;;
27365;SDS011;14837;57.148;-2.144;2023-07-28T13:00:42;0.70;;;0.65;;
27365;SDS011;14837;57.148;-2.144;2023-07-28T13:03:11;1.35;;;0.95;;
27365;SDS011;14837;57.148;-2.144;2023-07-28T13:05:38;0.98;;;0.80;;
27365;SDS011;14837;57.148;-2.144;2023-07-28T13:08:04;1.08;;;0.80;;
27365;SDS011;14837;57.148;-2.144;2023-07-28T13:10:34;1.00;;;0.90;;
27365;SDS011;14837;57.148;-2.144;2023-07-28T13:13:03;2.05;;;0.77;;
27365;SDS011;14837;57.148;-2.144;2023-07-28T13:15:30;1.08;;;0.75;;
27365;SDS011;14837;57.148;-2.144;2023-07-28T13:17:56;1.13;;;0.98;;
27365;SDS011;14837;57.148;-2.144;2023-07-28T13:20:23;1.60;;;0.80;;
27365;SDS011;14837;57.148;-2.144;2023-07-28T13:22:50;1.45;;;1.23;;
27365;SDS011;14837;57.148;-2.144;2023-07-28T13:25:16;0.98;;;0.70;;
27365;SDS011;14837;57.148;-2.144;2023-07-28T13:27:43;0.63;;;0.60;;
27365;SDS011;14837;57.148;-2.144;2023-07-28T13:30:09;1.08;;;0.98;;
27365;SDS011;14837;57.148;-2.144;2023-07-28T13:32:36;1.25;;;0.90;;
27365;SDS011;14837;57.148;-2.144;2023-07-28T13:35:03;1.00;;;0.85;;
27365;SDS011;14837;57.148;-2.144;2023-07-28T13:37:30;1.83;;;0.82;;
27365;SDS011;14837;57.148;-2.144;2023-07-28T13:39:56;1.05;;;0.90;;
27365;SDS011;14837;57.148;-2.144;2023-07-28T13:42:23;1.20;;;0.80;;
27365;SDS011;14837;57.148;-2.144;2023-07-28T13:44:49;2.03;;;0.98;;
27365;SDS011;14837;57.148;-2.144;2023-07-28T13:47:24;1.13;;;0.60;;
27365;SDS011;14837;57.148;-2.144;2023-07-28T13:49:51;1.13;;;0.80;;
27365;SDS011;14837;57.148;-2.144;2023-07-28T13:52:17;2.03;;;0.80;;
27365;SDS011;14837;57.148;-2.144;2023-07-28T13:54:47;1.30;;;0.88;;
27365;SDS011;14837;57.148;-2.144;2023-07-28T13:57:18;0.65;;;0.65;;
27365;SDS011;14837;57.148;-2.144;2023-07-28T13:59:44;1.95;;;0.98;;
27365;SDS011;14837;57.148;-2.144;2023-07-28T14:02:11;1.05;;;0.80;;
27365;SDS011;14837;57.148;-2.144;2023-07-28T14:04:38;0.95;;;0.70;;
27365;SDS011;14837;57.148;-2.144;2023-07-28T14:07:04;1.42;;;0.90;;
27365;SDS011;14837;57.148;-2.144;2023-07-28T14:09:31;1.00;;;0.90;;
27365;SDS011;14837;57.148;-2.144;2023-07-28T14:11:57;1.02;;;0.85;;
27365;SDS011;14837;57.148;-2.144;2023-07-28T14:14:24;0.70;;;0.60;;
27365;SDS011;14837;57.148;-2.144;2023-07-28T14:16:50;1.95;;;0.95;;
27365;SDS011;14837;57.148;-2.144;2023-07-28T14:19:17;1.55;;;0.80;;
27365;SDS011;14837;57.148;-2.144;2023-07-28T14:21:44;1.00;;;0.90;;
27365;SDS011;14837;57.148;-2.144;2023-07-28T14:24:10;1.50;;;0.82;;
27365;SDS011;14837;57.148;-2.144;2023-07-28T14:26:37;1.02;;;0.90;;
27365;SDS011;14837;57.148;-2.144;2023-07-28T14:29:04;0.70;;;0.60;;
27365;SDS011;14837;57.148;-2.144;2023-07-28T14:31:31;1.15;;;0.77;;
27365;SDS011;14837;57.148;-2.144;2023-07-28T14:33:58;1.08;;;0.90;;
27365;SDS011;14837;57.148;-2.144;2023-07-28T14:36:24;1.20;;;0.98;;
27365;SDS011;14837;57.148;-2.144;2023-07-28T14:38:51;1.67;;;0.98;;
27365;SDS011;14837;57.148;-2.144;2023-07-28T14:41:17;1.20;;;0.80;;
27365;SDS011;14837;57.148;-2.144;2023-07-28T14:43:44;1.15;;;0.85;;
27365;SDS011;14837;57.148;-2.144;2023-07-28T14:46:10;2.10;;;0.80;;
27365;SDS011;14837;57.148;-2.144;2023-07-28T14:48:37;1.52;;;0.85;;
27365;SDS011;14837;57.148;-2.144;2023-07-28T14:51:03;1.10;;;0.80;;